sensor_id;sensor_type;location;lat;lon;timestamp;P1;durP1;ratioP1;P2;durP2;ratioP2
68192;SDS011;55012;47.562;18.414;2024-01-07T00:00:25;312.63;;;29.63;;
68192;SDS011;55012;47.562;18.414;2024-01-07T00:02:50;236.88;;;28.75;;
68192;SDS011;55012;47.562;18.414;2024-01-07T00:05:15;259.40;;;30.02;;
68192;SDS011;55012;47.562;18.414;2024-01-07T00:07:41;104.78;;;28.75;;
68192;SDS011;55012;47.562;18.414;2024-01-07T00:10:06;80.55;;;29.27;;
68192;SDS011;55012;47.562;18.414;2024-01-07T00:12:32;87.50;;;26.48;;
68192;SDS011;55012;47.562;18.414;2024-01-07T00:14:57;106.00;;;28.27;;
68192;SDS011;55012;47.562;18.414;2024-01-07T00:17:23;122.78;;;25.70;;
68192;SDS011;55012;47.562;18.414;2024-01-07T00:19:48;109.07;;;24.77;;
68192;SDS011;55012;47.562;18.414;2024-01-07T00:22:13;72.50;;;23.55;;
68192;SDS011;55012;47.562;18.414;2024-01-07T00:24:39;65.88;;;25.17;;
68192;SDS011;55012;47.562;18.414;2024-01-07T00:27:04;126.40;;;25.55;;
68192;SDS011;55012;47.562;18.414;2024-01-07T00:29:29;67.90;;;26.27;;
68192;SDS011;55012;47.562;18.414;2024-01-07T00:31:55;57.33;;;24.73;;
68192;SDS011;55012;47.562;18.414;2024-01-07T00:34:20;64.22;;;25.60;;
68192;SDS011;55012;47.562;18.414;2024-01-07T00:36:46;65.20;;;25.95;;
68192;SDS011;55012;47.562;18.414;2024-01-07T00:39:11;63.28;;;26.05;;
68192;SDS011;55012;47.562;18.414;2024-01-07T00:41:36;61.95;;;25.92;;
68192;SDS011;55012;47.562;18.414;2024-01-07T00:44:02;64.63;;;27.33;;
68192;SDS011;55012;47.562;18.414;2024-01-07T00:46:27;63.50;;;25.95;;
68192;SDS011;55012;47.562;18.414;2024-01-07T00:48:52;60.83;;;25.48;;
68192;SDS011;55012;47.562;18.414;2024-01-07T00:51:18;66.05;;;25.27;;
68192;SDS011;55012;47.562;18.414;2024-01-07T00:53:43;57.53;;;24.05;;
68192;SDS011;55012;47.562;18.414;2024-01-07T00:56:09;53.95;;;23.75;;
68192;SDS011;55012;47.562;18.414;2024-01-07T00:58:35;54.50;;;24.17;;
68192;SDS011;55012;47.562;18.414;2024-01-07T01:01:01;52.90;;;22.58;;
68192;SDS011;55012;47.562;18.414;2024-01-07T01:03:27;56.22;;;23.40;;
68192;SDS011;55012;47.562;18.414;2024-01-07T01:05:52;52.50;;;22.50;;
68192;SDS011;55012;47.562;18.414;2024-01-07T01:08:17;53.05;;;22.58;;
68192;SDS011;55012;47.562;18.414;2024-01-07T01:10:43;51.25;;;22.00;;
68192;SDS011;55012;47.562;18.414;2024-01-07T01:13:08;51.65;;;21.60;;
68192;SDS011;55012;47.562;18.414;2024-01-07T01:15:34;47.55;;;22.05;;
68192;SDS011;55012;47.562;18.414;2024-01-07T01:17:59;53.70;;;21.88;;
68192;SDS011;55012;47.562;18.414;2024-01-07T01:20:25;48.72;;;21.55;;
68192;SDS011;55012;47.562;18.414;2024-01-07T01:22:50;72.55;;;22.08;;
68192;SDS011;55012;47.562;18.414;2024-01-07T01:25:15;47.72;;;20.85;;
68192;SDS011;55012;47.562;18.414;2024-01-07T01:27:41;70.07;;;21.00;;
68192;SDS011;55012;47.562;18.414;2024-01-07T01:30:06;77.15;;;20.98;;
68192;SDS011;55012;47.562;18.414;2024-01-07T01:32:32;87.60;;;20.90;;
68192;SDS011;55012;47.562;18.414;2024-01-07T01:34:58;74.20;;;22.02;;
68192;SDS011;55012;47.562;18.414;2024-01-07T01:37:23;52.78;;;20.33;;
68192;SDS011;55012;47.562;18.414;2024-01-07T01:39:49;57.42;;;20.98;;
68192;SDS011;55012;47.562;18.414;2024-01-07T01:42:14;60.47;;;24.85;;
68192;SDS011;55012;47.562;18.414;2024-01-07T01:44:40;63.20;;;26.17;;
68192;SDS011;55012;47.562;18.414;2024-01-07T01:47:07;62.22;;;24.58;;
68192;SDS011;55012;47.562;18.414;2024-01-07T01:49:32;52.00;;;23.20;;
68192;SDS011;55012;47.562;18.414;2024-01-07T01:52:00;60.05;;;21.75;;
68192;SDS011;55012;47.562;18.414;2024-01-07T01:54:26;83.80;;;21.48;;
68192;SDS011;55012;47.562;18.414;2024-01-07T01:56:51;65.68;;;19.88;;
68192;SDS011;55012;47.562;18.414;2024-01-07T01:59:17;78.30;;;20.90;;
68192;SDS011;55012;47.562;18.414;2024-01-07T02:01:43;55.47;;;21.08;;
68192;SDS011;55012;47.562;18.414;2024-01-07T02:04:09;58.92;;;22.73;;
68192;SDS011;55012;47.562;18.414;2024-01-07T02:06:35;71.97;;;22.27;;
68192;SDS011;55012;47.562;18.414;2024-01-07T02:09:01;61.67;;;21.55;;
68192;SDS011;55012;47.562;18.414;2024-01-07T02:11:26;56.08;;;22.48;;
68192;SDS011;55012;47.562;18.414;2024-01-07T02:13:52;63.42;;;20.67;;
68192;SDS011;55012;47.562;18.414;2024-01-07T02:16:17;52.42;;;20.83;;
68192;SDS011;55012;47.562;18.414;2024-01-07T02:18:43;59.22;;;21.38;;
68192;SDS011;55012;47.562;18.414;2024-01-07T02:21:10;60.10;;;20.63;;
68192;SDS011;55012;47.562;18.414;2024-01-07T02:23:37;168.95;;;21.48;;
68192;SDS011;55012;47.562;18.414;2024-01-07T02:26:03;172.52;;;21.55;;
68192;SDS011;55012;47.562;18.414;2024-01-07T02:28:29;252.52;;;21.05;;
68192;SDS011;55012;47.562;18.414;2024-01-07T02:30:55;75.13;;;20.05;;
68192;SDS011;55012;47.562;18.414;2024-01-07T02:33:20;75.47;;;20.02;;
68192;SDS011;55012;47.562;18.414;2024-01-07T02:35:46;103.43;;;20.42;;
68192;SDS011;55012;47.562;18.414;2024-01-07T02:38:11;118.22;;;21.90;;
68192;SDS011;55012;47.562;18.414;2024-01-07T02:40:36;216.77;;;21.70;;
68192;SDS011;55012;47.562;18.414;2024-01-07T02:43:02;108.35;;;20.58;;
68192;SDS011;55012;47.562;18.414;2024-01-07T02:45:27;188.05;;;21.25;;
68192;SDS011;55012;47.562;18.414;2024-01-07T02:47:52;62.78;;;19.02;;
68192;SDS011;55012;47.562;18.414;2024-01-07T02:50:18;118.47;;;20.58;;
68192;SDS011;55012;47.562;18.414;2024-01-07T02:52:43;123.32;;;21.00;;
68192;SDS011;55012;47.562;18.414;2024-01-07T02:55:08;195.75;;;20.90;;
68192;SDS011;55012;47.562;18.414;2024-01-07T02:57:34;78.45;;;19.20;;
68192;SDS011;55012;47.562;18.414;2024-01-07T02:59:59;106.88;;;18.58;;
68192;SDS011;55012;47.562;18.414;2024-01-07T03:02:25;340.60;;;22.35;;
68192;SDS011;55012;47.562;18.414;2024-01-07T03:04:50;260.52;;;20.33;;
68192;SDS011;55012;47.562;18.414;2024-01-07T03:07:15;180.98;;;20.55;;
68192;SDS011;55012;47.562;18.414;2024-01-07T03:09:41;198.93;;;19.85;;
68192;SDS011;55012;47.562;18.414;2024-01-07T03:12:06;184.65;;;19.95;;
68192;SDS011;55012;47.562;18.414;2024-01-07T03:14:31;333.00;;;22.42;;
68192;SDS011;55012;47.562;18.414;2024-01-07T03:16:57;117.47;;;18.77;;
68192;SDS011;55012;47.562;18.414;2024-01-07T03:19:22;331.67;;;23.05;;
68192;SDS011;55012;47.562;18.414;2024-01-07T03:21:48;133.00;;;19.52;;
68192;SDS011;55012;47.562;18.414;2024-01-07T03:24:14;128.52;;;19.55;;
68192;SDS011;55012;47.562;18.414;2024-01-07T03:26:39;304.75;;;20.63;;
68192;SDS011;55012;47.562;18.414;2024-01-07T03:29:05;270.40;;;19.63;;
68192;SDS011;55012;47.562;18.414;2024-01-07T03:31:30;235.52;;;18.10;;
68192;SDS011;55012;47.562;18.414;2024-01-07T03:33:55;483.85;;;23.73;;
68192;SDS011;55012;47.562;18.414;2024-01-07T03:36:21;297.00;;;19.38;;
68192;SDS011;55012;47.562;18.414;2024-01-07T03:38:46;221.10;;;19.08;;
68192;SDS011;55012;47.562;18.414;2024-01-07T03:41:19;249.73;;;19.77;;
68192;SDS011;55012;47.562;18.414;2024-01-07T03:43:48;333.67;;;21.55;;
68192;SDS011;55012;47.562;18.414;2024-01-07T03:46:14;317.25;;;22.55;;
68192;SDS011;55012;47.562;18.414;2024-01-07T03:48:40;277.25;;;20.73;;
68192;SDS011;55012;47.562;18.414;2024-01-07T03:51:06;444.83;;;24.08;;
68192;SDS011;55012;47.562;18.414;2024-01-07T03:53:32;193.90;;;17.83;;
68192;SDS011;55012;47.562;18.414;2024-01-07T03:55:57;304.73;;;20.30;;
68192;SDS011;55012;47.562;18.414;2024-01-07T03:58:23;188.38;;;18.40;;
68192;SDS011;55012;47.562;18.414;2024-01-07T04:00:48;141.75;;;16.30;;
68192;SDS011;55012;47.562;18.414;2024-01-07T04:03:13;170.60;;;17.15;;
68192;SDS011;55012;47.562;18.414;2024-01-07T04:05:39;225.82;;;19.20;;
68192;SDS011;55012;47.562;18.414;2024-01-07T04:08:04;110.50;;;15.15;;
68192;SDS011;55012;47.562;18.414;2024-01-07T04:10:30;110.15;;;15.43;;
68192;SDS011;55012;47.562;18.414;2024-01-07T04:12:55;148.93;;;16.05;;
68192;SDS011;55012;47.562;18.414;2024-01-07T04:15:21;181.07;;;17.38;;
68192;SDS011;55012;47.562;18.414;2024-01-07T04:17:46;123.28;;;15.63;;
68192;SDS011;55012;47.562;18.414;2024-01-07T04:20:15;226.05;;;17.65;;
68192;SDS011;55012;47.562;18.414;2024-01-07T04:22:40;203.18;;;17.48;;
68192;SDS011;55012;47.562;18.414;2024-01-07T04:25:06;80.53;;;16.17;;
68192;SDS011;55012;47.562;18.414;2024-01-07T04:27:33;121.10;;;16.15;;
68192;SDS011;55012;47.562;18.414;2024-01-07T04:30:00;72.68;;;16.30;;
68192;SDS011;55012;47.562;18.414;2024-01-07T04:32:26;177.02;;;18.08;;
68192;SDS011;55012;47.562;18.414;2024-01-07T04:34:51;57.05;;;16.00;;
68192;SDS011;55012;47.562;18.414;2024-01-07T04:37:17;119.10;;;15.23;;
68192;SDS011;55012;47.562;18.414;2024-01-07T04:39:42;37.15;;;13.27;;
68192;SDS011;55012;47.562;18.414;2024-01-07T04:42:07;168.57;;;15.60;;
68192;SDS011;55012;47.562;18.414;2024-01-07T04:44:33;34.83;;;12.57;;
68192;SDS011;55012;47.562;18.414;2024-01-07T04:46:58;27.58;;;10.93;;
68192;SDS011;55012;47.562;18.414;2024-01-07T04:49:23;27.38;;;10.63;;
68192;SDS011;55012;47.562;18.414;2024-01-07T04:51:48;33.60;;;10.95;;
68192;SDS011;55012;47.562;18.414;2024-01-07T04:54:14;44.28;;;11.45;;
68192;SDS011;55012;47.562;18.414;2024-01-07T04:56:39;21.92;;;8.95;;
68192;SDS011;55012;47.562;18.414;2024-01-07T04:59:04;34.88;;;10.52;;
68192;SDS011;55012;47.562;18.414;2024-01-07T05:01:32;57.60;;;10.05;;
68192;SDS011;55012;47.562;18.414;2024-01-07T05:03:58;46.05;;;11.13;;
68192;SDS011;55012;47.562;18.414;2024-01-07T05:06:23;107.55;;;11.50;;
68192;SDS011;55012;47.562;18.414;2024-01-07T05:08:49;181.48;;;13.13;;
68192;SDS011;55012;47.562;18.414;2024-01-07T05:11:14;79.07;;;11.65;;
68192;SDS011;55012;47.562;18.414;2024-01-07T05:13:42;129.65;;;12.40;;
68192;SDS011;55012;47.562;18.414;2024-01-07T05:16:07;125.43;;;13.23;;
68192;SDS011;55012;47.562;18.414;2024-01-07T05:18:32;363.92;;;18.58;;
68192;SDS011;55012;47.562;18.414;2024-01-07T05:20:58;88.95;;;12.23;;
68192;SDS011;55012;47.562;18.414;2024-01-07T05:23:23;206.52;;;14.48;;
68192;SDS011;55012;47.562;18.414;2024-01-07T05:25:48;208.50;;;13.88;;
68192;SDS011;55012;47.562;18.414;2024-01-07T05:28:14;189.43;;;14.43;;
68192;SDS011;55012;47.562;18.414;2024-01-07T05:30:40;212.27;;;14.27;;
68192;SDS011;55012;47.562;18.414;2024-01-07T05:33:06;212.07;;;13.43;;
68192;SDS011;55012;47.562;18.414;2024-01-07T05:35:31;172.75;;;12.30;;
68192;SDS011;55012;47.562;18.414;2024-01-07T05:37:57;253.13;;;14.77;;
68192;SDS011;55012;47.562;18.414;2024-01-07T05:40:23;175.43;;;13.27;;
68192;SDS011;55012;47.562;18.414;2024-01-07T05:42:48;358.73;;;16.75;;
68192;SDS011;55012;47.562;18.414;2024-01-07T05:45:14;48.67;;;11.95;;
68192;SDS011;55012;47.562;18.414;2024-01-07T05:47:39;236.70;;;14.60;;
68192;SDS011;55012;47.562;18.414;2024-01-07T05:50:06;104.75;;;11.75;;
68192;SDS011;55012;47.562;18.414;2024-01-07T05:52:32;255.45;;;15.48;;
68192;SDS011;55012;47.562;18.414;2024-01-07T05:54:57;348.63;;;17.00;;
68192;SDS011;55012;47.562;18.414;2024-01-07T05:57:22;197.88;;;13.57;;
68192;SDS011;55012;47.562;18.414;2024-01-07T05:59:48;46.67;;;9.85;;
68192;SDS011;55012;47.562;18.414;2024-01-07T06:02:15;169.32;;;13.55;;
68192;SDS011;55012;47.562;18.414;2024-01-07T06:04:41;166.73;;;14.30;;
68192;SDS011;55012;47.562;18.414;2024-01-07T06:07:06;147.65;;;16.50;;
68192;SDS011;55012;47.562;18.414;2024-01-07T06:09:32;61.53;;;12.57;;
68192;SDS011;55012;47.562;18.414;2024-01-07T06:11:57;28.30;;;11.05;;
68192;SDS011;55012;47.562;18.414;2024-01-07T06:14:23;51.15;;;13.02;;
68192;SDS011;55012;47.562;18.414;2024-01-07T06:16:48;165.43;;;16.58;;
68192;SDS011;55012;47.562;18.414;2024-01-07T06:19:15;544.95;;;25.17;;
68192;SDS011;55012;47.562;18.414;2024-01-07T06:21:42;502.25;;;23.90;;
68192;SDS011;55012;47.562;18.414;2024-01-07T06:24:07;249.32;;;18.23;;
68192;SDS011;55012;47.562;18.414;2024-01-07T06:26:33;128.23;;;13.68;;
68192;SDS011;55012;47.562;18.414;2024-01-07T06:28:58;49.03;;;11.93;;
68192;SDS011;55012;47.562;18.414;2024-01-07T06:31:24;51.17;;;12.18;;
68192;SDS011;55012;47.562;18.414;2024-01-07T06:33:50;75.13;;;10.68;;
68192;SDS011;55012;47.562;18.414;2024-01-07T06:36:15;338.33;;;19.23;;
68192;SDS011;55012;47.562;18.414;2024-01-07T06:38:40;174.73;;;14.77;;
68192;SDS011;55012;47.562;18.414;2024-01-07T06:41:06;65.93;;;12.43;;
68192;SDS011;55012;47.562;18.414;2024-01-07T06:43:31;107.50;;;12.93;;
68192;SDS011;55012;47.562;18.414;2024-01-07T06:45:57;193.95;;;14.40;;
68192;SDS011;55012;47.562;18.414;2024-01-07T06:48:22;246.50;;;16.55;;
68192;SDS011;55012;47.562;18.414;2024-01-07T06:50:48;143.50;;;13.63;;
68192;SDS011;55012;47.562;18.414;2024-01-07T06:53:13;273.65;;;16.35;;
68192;SDS011;55012;47.562;18.414;2024-01-07T06:55:38;141.38;;;14.82;;
68192;SDS011;55012;47.562;18.414;2024-01-07T06:58:04;127.35;;;14.15;;
68192;SDS011;55012;47.562;18.414;2024-01-07T07:00:29;162.65;;;14.65;;
68192;SDS011;55012;47.562;18.414;2024-01-07T07:02:55;237.57;;;15.75;;
68192;SDS011;55012;47.562;18.414;2024-01-07T07:05:20;126.65;;;13.35;;
68192;SDS011;55012;47.562;18.414;2024-01-07T07:07:45;44.40;;;13.38;;
68192;SDS011;55012;47.562;18.414;2024-01-07T07:10:11;115.35;;;12.48;;
68192;SDS011;55012;47.562;18.414;2024-01-07T07:12:36;37.97;;;9.45;;
68192;SDS011;55012;47.562;18.414;2024-01-07T07:15:02;25.13;;;10.63;;
68192;SDS011;55012;47.562;18.414;2024-01-07T07:17:27;32.00;;;12.57;;
68192;SDS011;55012;47.562;18.414;2024-01-07T07:19:52;30.83;;;11.90;;
68192;SDS011;55012;47.562;18.414;2024-01-07T07:22:18;28.77;;;12.05;;
68192;SDS011;55012;47.562;18.414;2024-01-07T07:24:43;32.97;;;13.93;;
68192;SDS011;55012;47.562;18.414;2024-01-07T07:27:09;27.13;;;11.75;;
68192;SDS011;55012;47.562;18.414;2024-01-07T07:29:34;30.85;;;13.48;;
68192;SDS011;55012;47.562;18.414;2024-01-07T07:32:00;30.20;;;12.75;;
68192;SDS011;55012;47.562;18.414;2024-01-07T07:34:25;23.88;;;10.60;;
68192;SDS011;55012;47.562;18.414;2024-01-07T07:36:50;26.88;;;10.90;;
68192;SDS011;55012;47.562;18.414;2024-01-07T07:39:16;21.08;;;9.85;;
68192;SDS011;55012;47.562;18.414;2024-01-07T07:41:42;22.50;;;10.35;;
68192;SDS011;55012;47.562;18.414;2024-01-07T07:44:10;24.95;;;10.88;;
68192;SDS011;55012;47.562;18.414;2024-01-07T07:46:35;20.80;;;8.70;;
68192;SDS011;55012;47.562;18.414;2024-01-07T07:49:00;19.50;;;8.93;;
68192;SDS011;55012;47.562;18.414;2024-01-07T07:51:26;28.33;;;11.15;;
68192;SDS011;55012;47.562;18.414;2024-01-07T07:53:52;29.00;;;11.32;;
68192;SDS011;55012;47.562;18.414;2024-01-07T07:56:17;31.55;;;12.73;;
68192;SDS011;55012;47.562;18.414;2024-01-07T07:58:43;35.03;;;14.25;;
68192;SDS011;55012;47.562;18.414;2024-01-07T08:01:08;28.23;;;11.15;;
68192;SDS011;55012;47.562;18.414;2024-01-07T08:03:33;24.00;;;9.90;;
68192;SDS011;55012;47.562;18.414;2024-01-07T08:05:59;28.30;;;10.52;;
68192;SDS011;55012;47.562;18.414;2024-01-07T08:08:25;30.17;;;11.95;;
68192;SDS011;55012;47.562;18.414;2024-01-07T08:10:50;32.30;;;12.75;;
68192;SDS011;55012;47.562;18.414;2024-01-07T08:13:15;34.08;;;11.95;;
68192;SDS011;55012;47.562;18.414;2024-01-07T08:15:41;23.15;;;9.48;;
68192;SDS011;55012;47.562;18.414;2024-01-07T08:18:06;29.35;;;11.70;;
68192;SDS011;55012;47.562;18.414;2024-01-07T08:20:31;27.83;;;10.70;;
68192;SDS011;55012;47.562;18.414;2024-01-07T08:22:57;19.83;;;8.60;;
68192;SDS011;55012;47.562;18.414;2024-01-07T08:25:22;22.90;;;9.45;;
68192;SDS011;55012;47.562;18.414;2024-01-07T08:27:48;19.08;;;8.40;;
68192;SDS011;55012;47.562;18.414;2024-01-07T08:30:14;28.10;;;10.90;;
68192;SDS011;55012;47.562;18.414;2024-01-07T08:32:40;22.60;;;9.70;;
68192;SDS011;55012;47.562;18.414;2024-01-07T08:35:05;28.08;;;10.90;;
68192;SDS011;55012;47.562;18.414;2024-01-07T08:37:31;24.42;;;10.52;;
68192;SDS011;55012;47.562;18.414;2024-01-07T08:39:56;19.77;;;8.38;;
68192;SDS011;55012;47.562;18.414;2024-01-07T08:42:22;32.60;;;12.15;;
68192;SDS011;55012;47.562;18.414;2024-01-07T08:44:48;28.00;;;11.60;;
68192;SDS011;55012;47.562;18.414;2024-01-07T08:47:13;25.42;;;9.70;;
68192;SDS011;55012;47.562;18.414;2024-01-07T08:49:39;30.02;;;11.00;;
68192;SDS011;55012;47.562;18.414;2024-01-07T08:52:05;30.98;;;11.15;;
68192;SDS011;55012;47.562;18.414;2024-01-07T08:54:30;27.48;;;10.38;;
68192;SDS011;55012;47.562;18.414;2024-01-07T08:56:55;28.45;;;10.57;;
68192;SDS011;55012;47.562;18.414;2024-01-07T08:59:21;27.08;;;11.07;;
68192;SDS011;55012;47.562;18.414;2024-01-07T09:01:46;18.83;;;7.53;;
68192;SDS011;55012;47.562;18.414;2024-01-07T09:04:12;25.42;;;9.52;;
68192;SDS011;55012;47.562;18.414;2024-01-07T09:06:37;23.20;;;8.65;;
68192;SDS011;55012;47.562;18.414;2024-01-07T09:09:03;20.90;;;8.20;;
68192;SDS011;55012;47.562;18.414;2024-01-07T09:11:31;26.08;;;10.13;;
68192;SDS011;55012;47.562;18.414;2024-01-07T09:13:57;18.50;;;8.30;;
68192;SDS011;55012;47.562;18.414;2024-01-07T09:16:22;25.52;;;9.90;;
68192;SDS011;55012;47.562;18.414;2024-01-07T09:18:48;24.02;;;9.07;;
68192;SDS011;55012;47.562;18.414;2024-01-07T09:21:13;22.92;;;9.13;;
68192;SDS011;55012;47.562;18.414;2024-01-07T09:23:40;24.52;;;9.68;;
68192;SDS011;55012;47.562;18.414;2024-01-07T09:26:06;24.77;;;9.57;;
68192;SDS011;55012;47.562;18.414;2024-01-07T09:28:32;21.98;;;9.40;;
68192;SDS011;55012;47.562;18.414;2024-01-07T09:30:57;24.98;;;10.50;;
68192;SDS011;55012;47.562;18.414;2024-01-07T09:33:22;24.30;;;9.27;;
68192;SDS011;55012;47.562;18.414;2024-01-07T09:35:49;21.40;;;8.68;;
68192;SDS011;55012;47.562;18.414;2024-01-07T09:38:15;27.80;;;10.65;;
68192;SDS011;55012;47.562;18.414;2024-01-07T09:40:40;23.33;;;9.73;;
68192;SDS011;55012;47.562;18.414;2024-01-07T09:43:06;19.85;;;8.52;;
68192;SDS011;55012;47.562;18.414;2024-01-07T09:45:31;26.65;;;11.27;;
68192;SDS011;55012;47.562;18.414;2024-01-07T09:47:57;21.35;;;9.07;;
68192;SDS011;55012;47.562;18.414;2024-01-07T09:50:23;27.58;;;10.68;;
68192;SDS011;55012;47.562;18.414;2024-01-07T09:52:48;22.73;;;9.27;;
68192;SDS011;55012;47.562;18.414;2024-01-07T09:55:22;22.17;;;8.75;;
68192;SDS011;55012;47.562;18.414;2024-01-07T09:57:54;24.63;;;10.85;;
68192;SDS011;55012;47.562;18.414;2024-01-07T10:00:20;24.30;;;9.52;;
68192;SDS011;55012;47.562;18.414;2024-01-07T10:02:45;30.95;;;11.23;;
68192;SDS011;55012;47.562;18.414;2024-01-07T10:05:10;28.58;;;10.73;;
68192;SDS011;55012;47.562;18.414;2024-01-07T10:07:36;27.75;;;10.38;;
68192;SDS011;55012;47.562;18.414;2024-01-07T10:10:17;22.23;;;8.90;;
68192;SDS011;55012;47.562;18.414;2024-01-07T10:12:45;23.02;;;10.23;;
68192;SDS011;55012;47.562;18.414;2024-01-07T10:15:11;20.67;;;9.23;;
68192;SDS011;55012;47.562;18.414;2024-01-07T10:17:37;26.60;;;10.35;;
68192;SDS011;55012;47.562;18.414;2024-01-07T10:20:05;17.83;;;7.82;;
68192;SDS011;55012;47.562;18.414;2024-01-07T10:22:34;22.70;;;9.27;;
68192;SDS011;55012;47.562;18.414;2024-01-07T10:25:00;21.08;;;9.18;;
68192;SDS011;55012;47.562;18.414;2024-01-07T10:27:25;22.80;;;9.73;;
68192;SDS011;55012;47.562;18.414;2024-01-07T10:29:51;17.80;;;8.38;;
68192;SDS011;55012;47.562;18.414;2024-01-07T10:32:20;20.48;;;8.90;;
68192;SDS011;55012;47.562;18.414;2024-01-07T10:34:46;16.00;;;7.30;;
68192;SDS011;55012;47.562;18.414;2024-01-07T10:37:15;19.10;;;7.65;;
68192;SDS011;55012;47.562;18.414;2024-01-07T10:39:40;17.90;;;8.35;;
68192;SDS011;55012;47.562;18.414;2024-01-07T10:42:06;19.20;;;8.27;;
68192;SDS011;55012;47.562;18.414;2024-01-07T10:44:32;18.55;;;7.15;;
68192;SDS011;55012;47.562;18.414;2024-01-07T10:46:58;18.90;;;8.02;;
68192;SDS011;55012;47.562;18.414;2024-01-07T10:49:25;17.58;;;7.93;;
68192;SDS011;55012;47.562;18.414;2024-01-07T10:52:04;22.02;;;9.15;;
68192;SDS011;55012;47.562;18.414;2024-01-07T10:54:31;30.20;;;11.10;;
68192;SDS011;55012;47.562;18.414;2024-01-07T10:57:11;26.08;;;10.82;;
68192;SDS011;55012;47.562;18.414;2024-01-07T10:59:44;24.83;;;10.32;;
68192;SDS011;55012;47.562;18.414;2024-01-07T11:02:10;37.15;;;14.00;;
68192;SDS011;55012;47.562;18.414;2024-01-07T11:04:51;26.05;;;11.05;;
68192;SDS011;55012;47.562;18.414;2024-01-07T11:07:29;38.00;;;13.98;;
68192;SDS011;55012;47.562;18.414;2024-01-07T11:10:08;34.65;;;12.32;;
68192;SDS011;55012;47.562;18.414;2024-01-07T11:12:37;28.98;;;11.32;;
68192;SDS011;55012;47.562;18.414;2024-01-07T11:15:03;26.40;;;9.38;;
68192;SDS011;55012;47.562;18.414;2024-01-07T11:19:56;33.85;;;12.82;;
68192;SDS011;55012;47.562;18.414;2024-01-07T11:22:25;25.17;;;10.93;;
68192;SDS011;55012;47.562;18.414;2024-01-07T11:24:58;34.03;;;12.98;;
68192;SDS011;55012;47.562;18.414;2024-01-07T11:27:26;32.05;;;13.18;;
68192;SDS011;55012;47.562;18.414;2024-01-07T11:29:56;21.65;;;9.15;;
68192;SDS011;55012;47.562;18.414;2024-01-07T11:32:23;30.38;;;11.02;;
68192;SDS011;55012;47.562;18.414;2024-01-07T11:34:53;20.67;;;8.45;;
68192;SDS011;55012;47.562;18.414;2024-01-07T11:37:21;45.10;;;14.40;;
68192;SDS011;55012;47.562;18.414;2024-01-07T11:39:48;32.00;;;12.57;;
68192;SDS011;55012;47.562;18.414;2024-01-07T11:42:16;32.72;;;12.50;;
68192;SDS011;55012;47.562;18.414;2024-01-07T11:44:48;38.50;;;13.88;;
68192;SDS011;55012;47.562;18.414;2024-01-07T11:47:16;30.75;;;12.25;;
68192;SDS011;55012;47.562;18.414;2024-01-07T11:49:42;38.83;;;15.35;;
68192;SDS011;55012;47.562;18.414;2024-01-07T11:52:09;42.90;;;15.50;;
68192;SDS011;55012;47.562;18.414;2024-01-07T11:54:35;36.53;;;14.35;;
68192;SDS011;55012;47.562;18.414;2024-01-07T11:57:04;39.35;;;15.80;;
68192;SDS011;55012;47.562;18.414;2024-01-07T11:59:31;41.42;;;15.80;;
68192;SDS011;55012;47.562;18.414;2024-01-07T12:01:56;36.90;;;13.68;;
68192;SDS011;55012;47.562;18.414;2024-01-07T12:04:22;32.33;;;13.18;;
68192;SDS011;55012;47.562;18.414;2024-01-07T12:06:50;49.67;;;17.02;;
68192;SDS011;55012;47.562;18.414;2024-01-07T12:09:16;43.03;;;15.48;;
68192;SDS011;55012;47.562;18.414;2024-01-07T12:11:42;34.22;;;15.00;;
68192;SDS011;55012;47.562;18.414;2024-01-07T12:14:08;42.47;;;16.67;;
68192;SDS011;55012;47.562;18.414;2024-01-07T12:16:35;37.83;;;14.82;;
68192;SDS011;55012;47.562;18.414;2024-01-07T12:19:01;35.35;;;14.13;;
68192;SDS011;55012;47.562;18.414;2024-01-07T12:21:26;43.08;;;16.13;;
68192;SDS011;55012;47.562;18.414;2024-01-07T12:23:53;36.55;;;13.82;;
68192;SDS011;55012;47.562;18.414;2024-01-07T12:26:19;39.80;;;14.13;;
68192;SDS011;55012;47.562;18.414;2024-01-07T12:28:44;39.83;;;15.25;;
68192;SDS011;55012;47.562;18.414;2024-01-07T12:31:19;40.30;;;15.73;;
68192;SDS011;55012;47.562;18.414;2024-01-07T12:33:46;33.35;;;14.02;;
68192;SDS011;55012;47.562;18.414;2024-01-07T12:36:11;34.15;;;13.70;;
68192;SDS011;55012;47.562;18.414;2024-01-07T12:38:40;34.10;;;13.32;;
68192;SDS011;55012;47.562;18.414;2024-01-07T12:41:06;40.75;;;15.77;;
68192;SDS011;55012;47.562;18.414;2024-01-07T12:43:31;52.72;;;18.25;;
68192;SDS011;55012;47.562;18.414;2024-01-07T12:45:57;39.13;;;14.65;;
68192;SDS011;55012;47.562;18.414;2024-01-07T12:48:28;36.90;;;15.55;;
68192;SDS011;55012;47.562;18.414;2024-01-07T12:50:54;35.17;;;13.70;;
68192;SDS011;55012;47.562;18.414;2024-01-07T12:53:19;39.53;;;14.57;;
68192;SDS011;55012;47.562;18.414;2024-01-07T12:55:44;38.80;;;15.10;;
68192;SDS011;55012;47.562;18.414;2024-01-07T12:58:10;40.75;;;15.50;;
68192;SDS011;55012;47.562;18.414;2024-01-07T13:00:35;38.75;;;15.15;;
68192;SDS011;55012;47.562;18.414;2024-01-07T13:03:01;28.35;;;13.88;;
68192;SDS011;55012;47.562;18.414;2024-01-07T13:05:26;33.53;;;12.77;;
68192;SDS011;55012;47.562;18.414;2024-01-07T13:07:51;32.30;;;13.15;;
68192;SDS011;55012;47.562;18.414;2024-01-07T13:10:17;34.92;;;14.57;;
68192;SDS011;55012;47.562;18.414;2024-01-07T13:12:42;31.50;;;12.00;;
68192;SDS011;55012;47.562;18.414;2024-01-07T13:15:08;29.52;;;12.45;;
68192;SDS011;55012;47.562;18.414;2024-01-07T13:17:33;28.65;;;10.95;;
68192;SDS011;55012;47.562;18.414;2024-01-07T13:19:59;33.20;;;12.35;;
68192;SDS011;55012;47.562;18.414;2024-01-07T13:22:25;40.03;;;15.63;;
68192;SDS011;55012;47.562;18.414;2024-01-07T13:24:50;33.17;;;12.57;;
68192;SDS011;55012;47.562;18.414;2024-01-07T13:27:15;39.83;;;15.57;;
68192;SDS011;55012;47.562;18.414;2024-01-07T13:29:43;32.92;;;13.45;;
68192;SDS011;55012;47.562;18.414;2024-01-07T13:32:12;34.70;;;12.32;;
68192;SDS011;55012;47.562;18.414;2024-01-07T13:34:40;26.42;;;11.27;;
68192;SDS011;55012;47.562;18.414;2024-01-07T13:37:05;30.95;;;12.32;;
68192;SDS011;55012;47.562;18.414;2024-01-07T13:39:30;24.63;;;10.38;;
68192;SDS011;55012;47.562;18.414;2024-01-07T13:41:56;29.27;;;12.25;;
68192;SDS011;55012;47.562;18.414;2024-01-07T13:44:21;25.85;;;10.98;;
68192;SDS011;55012;47.562;18.414;2024-01-07T13:46:47;29.02;;;11.32;;
68192;SDS011;55012;47.562;18.414;2024-01-07T13:49:13;29.85;;;10.93;;
68192;SDS011;55012;47.562;18.414;2024-01-07T13:51:40;26.70;;;11.88;;
68192;SDS011;55012;47.562;18.414;2024-01-07T13:54:06;29.42;;;12.07;;
68192;SDS011;55012;47.562;18.414;2024-01-07T13:56:32;29.38;;;12.35;;
68192;SDS011;55012;47.562;18.414;2024-01-07T13:59:00;33.78;;;13.68;;
68192;SDS011;55012;47.562;18.414;2024-01-07T14:01:28;30.05;;;11.82;;